createdAt,value
2019-01-06T00:01:05.387Z,18.67
2019-01-06T00:03:41.156Z,20.53
2019-01-06T00:06:19.887Z,17.90
2019-01-06T00:09:07.045Z,18.03
2019-01-06T00:11:50.232Z,19.50
2019-01-06T00:14:35.362Z,16.70
2019-01-06T00:17:05.465Z,18.33
2019-01-06T00:19:38.554Z,23.20
2019-01-06T00:22:16.968Z,16.90
2019-01-06T00:24:57.628Z,17.67
2019-01-06T00:27:42.332Z,19.10
2019-01-06T00:30:27.084Z,13.73
2019-01-06T00:33:13.279Z,13.53
2019-01-06T00:35:46.090Z,15.37
2019-01-06T00:38:28.267Z,15.43
2019-01-06T00:41:07.255Z,12.00
2019-01-06T00:43:53.144Z,15.70
2019-01-06T00:46:41.086Z,16.13
2019-01-06T00:49:19.988Z,11.83
2019-01-06T00:52:01.717Z,14.80
2019-01-06T00:54:34.446Z,12.10
2019-01-06T00:57:16.266Z,17.33
2019-01-06T00:59:54.912Z,14.97
2019-01-06T01:02:27.642Z,16.07
2019-01-06T01:05:03.745Z,14.60
2019-01-06T01:07:33.759Z,14.67
2019-01-06T01:10:06.228Z,17.80
2019-01-06T01:12:54.376Z,19.53
2019-01-06T01:15:27.440Z,15.93
2019-01-06T01:18:09.572Z,16.30
2019-01-06T01:20:48.326Z,17.47
2019-01-06T01:23:18.344Z,18.57
2019-01-06T01:25:51.438Z,16.73
2019-01-06T01:28:30.638Z,18.77
2019-01-06T01:31:03.632Z,16.00
2019-01-06T01:33:51.511Z,18.90
2019-01-06T01:36:26.966Z,14.67
2019-01-06T01:39:13.045Z,19.17
2019-01-06T01:41:43.098Z,19.47
2019-01-06T01:44:15.771Z,19.43
2019-01-06T01:46:54.986Z,18.40
2019-01-06T01:49:27.952Z,20.57
2019-01-06T01:52:00.377Z,20.93
2019-01-06T01:54:46.587Z,16.73
2019-01-06T01:57:25.427Z,19.00
2019-01-06T01:59:55.446Z,19.40
2019-01-06T02:02:31.163Z,20.03
2019-01-06T02:05:01.184Z,16.97
2019-01-06T02:07:36.637Z,18.17
2019-01-06T02:10:09.388Z,19.67
2019-01-06T02:12:39.420Z,19.20
2019-01-06T02:15:09.516Z,18.60
2019-01-06T02:17:39.536Z,17.90
2019-01-06T02:20:09.621Z,21.53
2019-01-06T02:22:45.586Z,17.07
2019-01-06T02:25:31.282Z,17.80
2019-01-06T02:28:07.353Z,18.83
2019-01-06T02:30:40.330Z,17.27
2019-01-06T02:33:12.755Z,20.97
2019-01-06T02:35:44.296Z,18.47
2019-01-06T02:38:26.308Z,17.10
2019-01-06T02:41:05.032Z,21.90
2019-01-06T02:43:43.856Z,22.10
2019-01-06T02:46:13.877Z,23.87
2019-01-06T02:48:47.848Z,18.43
2019-01-06T02:51:20.273Z,18.73
2019-01-06T02:53:56.069Z,22.80
2019-01-06T02:56:29.160Z,18.67
2019-01-06T02:59:04.948Z,21.03
2019-01-06T03:01:43.785Z,22.70
2019-01-06T03:04:22.930Z,23.83
2019-01-06T03:07:04.658Z,22.57
2019-01-06T03:09:50.685Z,20.80
2019-01-06T03:12:20.711Z,18.13
2019-01-06T03:14:59.530Z,19.97
2019-01-06T03:17:29.548Z,18.83
2019-01-06T03:20:15.794Z,19.80
2019-01-06T03:22:45.824Z,22.20
2019-01-06T03:25:15.854Z,20.43
2019-01-06T03:28:01.823Z,20.90
2019-01-06T03:30:47.871Z,21.70
2019-01-06T03:33:20.597Z,23.50
2019-01-06T03:36:06.532Z,21.33
2019-01-06T03:38:45.636Z,19.00
2019-01-06T03:41:27.375Z,22.30
2019-01-06T03:44:01.321Z,21.73
2019-01-06T03:46:37.308Z,21.40
2019-01-06T03:49:25.177Z,19.90
2019-01-06T03:51:55.202Z,20.13
2019-01-06T03:54:39.938Z,20.60
2019-01-06T03:57:15.867Z,17.23
2019-01-06T03:59:51.339Z,21.50
2019-01-06T04:02:27.375Z,20.33
2019-01-06T04:05:00.023Z,18.30
2019-01-06T04:07:46.021Z,20.30
2019-01-06T04:10:18.443Z,20.93
2019-01-06T04:13:04.548Z,20.53
2019-01-06T04:15:52.768Z,19.87
2019-01-06T04:18:25.304Z,17.17
2019-01-06T04:21:07.251Z,17.13
2019-01-06T04:23:53.454Z,19.53
2019-01-06T04:26:38.306Z,20.53
2019-01-06T04:29:08.327Z,19.37
2019-01-06T04:31:50.179Z,21.27
2019-01-06T04:34:22.925Z,19.13
2019-01-06T04:37:02.050Z,18.80
2019-01-06T04:39:34.749Z,18.63
2019-01-06T04:42:20.923Z,19.03
2019-01-06T04:45:06.603Z,20.13
2019-01-06T04:47:36.640Z,17.90
2019-01-06T04:50:23.660Z,20.30
2019-01-06T04:53:02.618Z,22.40
2019-01-06T04:55:35.069Z,22.37
2019-01-06T04:58:20.722Z,24.10
2019-01-06T05:00:56.239Z,21.93
2019-01-06T05:03:26.254Z,21.37
2019-01-06T05:06:04.721Z,23.30
2019-01-06T05:08:37.425Z,21.87
2019-01-06T05:11:13.423Z,21.97
2019-01-06T05:14:01.797Z,23.20
2019-01-06T05:16:31.832Z,23.83
2019-01-06T05:19:13.422Z,26.83
2019-01-06T05:22:00.981Z,23.03
2019-01-06T05:24:33.905Z,25.83
2019-01-06T05:27:09.583Z,27.93
2019-01-06T05:29:54.505Z,28.10
2019-01-06T05:32:24.532Z,25.87
2019-01-06T05:34:54.547Z,27.90
2019-01-06T05:37:24.570Z,27.20
2019-01-06T05:40:06.415Z,26.40
2019-01-06T05:42:52.430Z,23.50
2019-01-06T05:45:38.050Z,26.53
2019-01-06T05:48:13.795Z,24.90
2019-01-06T05:50:49.231Z,24.77
2019-01-06T05:53:24.947Z,21.20
2019-01-06T05:55:57.381Z,24.53
2019-01-06T05:58:30.414Z,21.77
2019-01-06T06:01:12.251Z,25.63
2019-01-06T06:03:50.961Z,26.27
2019-01-06T06:06:26.931Z,20.83
2019-01-06T06:09:08.668Z,24.00
2019-01-06T06:11:54.818Z,21.23
2019-01-06T06:14:40.820Z,21.67
2019-01-06T06:17:19.687Z,19.97
2019-01-06T06:19:55.197Z,21.50
2019-01-06T06:22:37.048Z,21.70
2019-01-06T06:25:23.020Z,20.10
2019-01-06T06:27:53.044Z,21.07
2019-01-06T06:30:32.623Z,19.87
2019-01-06T06:33:05.575Z,19.97
2019-01-06T06:35:35.601Z,20.83
2019-01-06T06:38:08.030Z,24.50
2019-01-06T06:40:43.903Z,19.60
2019-01-06T06:43:13.930Z,19.73
2019-01-06T06:45:56.030Z,20.60
2019-01-06T06:48:34.590Z,20.63
2019-01-06T06:51:13.313Z,18.30
2019-01-06T06:53:55.270Z,19.60
2019-01-06T06:56:25.299Z,18.60
2019-01-06T06:59:01.300Z,18.00
2019-01-06T07:01:37.114Z,18.90
2019-01-06T07:04:18.821Z,20.13
2019-01-06T07:07:03.419Z,18.37
2019-01-06T07:09:49.668Z,17.70
2019-01-06T07:12:34.817Z,16.00
2019-01-06T07:15:10.859Z,17.27
2019-01-06T07:17:53.201Z,14.87
2019-01-06T07:20:28.510Z,14.50
2019-01-06T07:23:10.379Z,18.30
2019-01-06T07:25:48.929Z,14.37
2019-01-06T07:28:24.385Z,14.63
2019-01-06T07:31:10.134Z,15.53
2019-01-06T07:33:42.554Z,14.70
2019-01-06T07:36:27.667Z,17.13
2019-01-06T07:38:57.690Z,16.00
2019-01-06T07:41:31.322Z,14.23
2019-01-06T07:44:04.025Z,15.43
2019-01-06T07:46:45.748Z,13.87
2019-01-06T07:49:15.778Z,16.47
2019-01-06T07:51:51.561Z,13.87
2019-01-06T07:54:40.803Z,16.07
2019-01-06T07:57:16.582Z,14.87
2019-01-06T07:59:58.452Z,15.50
2019-01-06T08:02:37.157Z,16.70
2019-01-06T08:05:23.757Z,14.77
2019-01-06T08:07:55.625Z,16.67
2019-01-06T08:10:25.511Z,16.57
2019-01-06T08:12:55.802Z,17.10
2019-01-06T08:15:28.328Z,15.67
2019-01-06T08:18:01.121Z,14.53
2019-01-06T08:20:32.818Z,15.67
2019-01-06T08:23:02.953Z,16.37
2019-01-06T08:25:48.619Z,16.90
2019-01-06T08:28:24.058Z,14.17
2019-01-06T08:30:56.753Z,14.73
2019-01-06T08:33:44.814Z,15.40
2019-01-06T08:36:27.000Z,18.07
2019-01-06T08:39:10.502Z,15.57
2019-01-06T08:41:43.234Z,18.63
2019-01-06T08:44:19.020Z,18.27
2019-01-06T08:47:04.658Z,16.77
2019-01-06T08:49:40.665Z,19.13
2019-01-06T08:52:10.691Z,21.10
2019-01-06T08:54:43.455Z,23.90
2019-01-06T08:57:13.491Z,19.77
2019-01-06T08:59:48.965Z,21.77
2019-01-06T09:02:18.998Z,19.17
2019-01-06T09:04:49.013Z,20.77
2019-01-06T09:07:27.799Z,19.93
2019-01-06T09:10:03.494Z,21.37
2019-01-06T09:12:49.675Z,20.87
2019-01-06T09:15:35.741Z,20.40
2019-01-06T09:18:10.680Z,19.50
2019-01-06T09:20:43.111Z,21.67
2019-01-06T09:23:13.377Z,20.53
2019-01-06T09:25:43.441Z,20.47
2019-01-06T09:28:13.449Z,22.17
2019-01-06T09:30:49.454Z,22.57
2019-01-06T09:33:25.428Z,17.43
2019-01-06T09:35:55.449Z,22.30
2019-01-06T09:38:31.332Z,22.20
2019-01-06T09:41:01.364Z,21.43
2019-01-06T09:43:33.790Z,20.13
2019-01-06T09:46:06.323Z,18.93
2019-01-06T09:48:36.333Z,18.90
2019-01-06T09:51:06.357Z,20.77
2019-01-06T09:53:52.193Z,23.20
2019-01-06T09:56:31.069Z,18.73
2019-01-06T09:59:06.845Z,20.53
2019-01-06T10:01:39.825Z,22.10
2019-01-06T10:04:25.710Z,22.33
2019-01-06T10:06:55.741Z,22.77
2019-01-06T10:09:37.330Z,22.90
2019-01-06T10:12:22.139Z,20.90
2019-01-06T10:15:03.986Z,23.50
2019-01-06T10:17:50.029Z,26.13
2019-01-06T10:20:20.050Z,21.13
2019-01-06T10:22:50.069Z,24.27
2019-01-06T10:25:25.884Z,24.07
2019-01-06T10:27:56.851Z,22.77
2019-01-06T10:30:43.812Z,21.40
2019-01-06T10:33:16.588Z,21.07
2019-01-06T10:35:58.424Z,22.17
2019-01-06T10:38:50.844Z,21.93
2019-01-06T10:41:24.163Z,20.43
2019-01-06T10:43:55.109Z,18.60
2019-01-06T10:46:30.905Z,18.37
2019-01-06T10:49:18.541Z,18.80
2019-01-06T10:52:04.262Z,17.10
2019-01-06T10:54:43.001Z,18.37
2019-01-06T10:57:16.716Z,19.77
2019-01-06T10:59:49.508Z,20.63
2019-01-06T11:02:35.762Z,18.00
2019-01-06T11:05:15.213Z,20.10
2019-01-06T11:07:45.223Z,18.17
2019-01-06T11:10:20.924Z,20.83
2019-01-06T11:13:02.438Z,19.67
2019-01-06T11:15:40.972Z,18.10
2019-01-06T11:18:10.989Z,17.43
2019-01-06T11:20:54.046Z,22.13
2019-01-06T11:23:26.702Z,18.47
2019-01-06T11:25:56.732Z,20.03
2019-01-06T11:28:29.454Z,18.23
2019-01-06T11:31:15.859Z,15.53
2019-01-06T11:34:03.038Z,18.63
2019-01-06T11:36:35.734Z,18.57
2019-01-06T11:39:22.235Z,19.33
2019-01-06T11:41:55.159Z,18.17
2019-01-06T11:44:34.227Z,18.13
2019-01-06T11:47:13.084Z,20.83
2019-01-06T11:49:46.170Z,16.27
2019-01-06T11:52:16.204Z,17.07
2019-01-06T11:54:54.891Z,17.33
2019-01-06T11:57:41.423Z,16.27
2019-01-06T12:00:23.420Z,18.60
2019-01-06T12:02:54.420Z,17.67
2019-01-06T12:05:24.445Z,17.17
2019-01-06T12:08:00.501Z,17.10
2019-01-06T12:10:36.321Z,25.23
2019-01-06T12:13:12.159Z,19.93
2019-01-06T12:15:47.933Z,19.03
2019-01-06T12:18:33.891Z,19.63
2019-01-06T12:21:03.909Z,23.53
2019-01-06T12:23:45.748Z,20.30
2019-01-06T12:26:16.009Z,22.03
2019-01-06T12:29:02.345Z,21.47
2019-01-06T12:31:35.064Z,20.70
2019-01-06T12:34:21.344Z,20.30
2019-01-06T12:36:51.621Z,23.93
2019-01-06T12:39:21.671Z,22.97
2019-01-06T12:41:57.456Z,20.43
2019-01-06T12:44:33.199Z,23.20
2019-01-06T12:47:18.073Z,21.07
2019-01-06T12:49:50.811Z,23.97
2019-01-06T12:52:36.733Z,23.83
2019-01-06T12:55:24.650Z,22.53
2019-01-06T12:57:57.864Z,22.17
2019-01-06T13:00:39.684Z,23.43
2019-01-06T13:03:09.765Z,24.10
2019-01-06T13:05:42.509Z,23.43
2019-01-06T13:08:15.187Z,23.87
2019-01-06T13:10:45.218Z,23.57
2019-01-06T13:13:20.741Z,30.67
2019-01-06T13:16:06.716Z,25.50
2019-01-06T13:18:51.857Z,28.00
2019-01-06T13:21:24.460Z,23.83
2019-01-06T13:24:09.302Z,25.33
2019-01-06T13:26:55.173Z,25.77
2019-01-06T13:29:28.152Z,27.27
2019-01-06T13:32:16.000Z,30.40
2019-01-06T13:34:58.115Z,24.87
2019-01-06T13:37:46.052Z,25.80
2019-01-06T13:40:42.738Z,27.47
2019-01-06T13:43:16.716Z,22.93
2019-01-06T13:45:52.431Z,23.23
2019-01-06T13:48:22.463Z,28.03
2019-01-06T13:51:10.533Z,27.80
2019-01-06T13:53:49.530Z,26.87
2019-01-06T13:56:35.192Z,25.00
2019-01-06T13:59:11.285Z,24.27
2019-01-06T14:02:02.723Z,24.47
2019-01-06T14:04:48.641Z,26.13
2019-01-06T14:07:18.665Z,26.43
2019-01-06T14:09:51.491Z,26.10
2019-01-06T14:12:35.571Z,26.37
2019-01-06T14:15:06.102Z,26.87
2019-01-06T14:17:38.526Z,28.37
2019-01-06T14:20:25.214Z,27.17
2019-01-06T14:23:00.911Z,27.90
2019-01-06T14:25:45.771Z,31.07
2019-01-06T14:28:34.583Z,26.17
2019-01-06T14:31:20.575Z,27.87
2019-01-06T14:33:51.559Z,29.37
2019-01-06T14:36:27.363Z,29.80
2019-01-06T14:39:00.359Z,29.43
2019-01-06T14:41:31.341Z,33.27
2019-01-06T14:44:17.085Z,27.53
2019-01-06T14:46:49.927Z,25.77
2019-01-06T14:49:19.949Z,24.37
2019-01-06T14:51:52.365Z,31.30
2019-01-06T14:54:22.387Z,27.27
2019-01-06T14:57:00.985Z,24.20
2019-01-06T14:59:31.018Z,27.87
2019-01-06T15:02:09.699Z,27.63
2019-01-06T15:04:40.775Z,25.83
2019-01-06T15:07:10.787Z,25.20
2019-01-06T15:09:58.728Z,32.13
2019-01-06T15:12:45.895Z,25.83
2019-01-06T15:15:35.231Z,33.30
2019-01-06T15:18:19.010Z,28.60
2019-01-06T15:20:49.027Z,26.80
2019-01-06T15:23:19.945Z,26.07
2019-01-06T15:25:49.969Z,24.73
2019-01-06T15:28:37.860Z,26.77
2019-01-06T15:31:19.732Z,25.20
2019-01-06T15:34:05.661Z,27.53
2019-01-06T15:36:38.356Z,23.07
2019-01-06T15:39:17.154Z,27.03
2019-01-06T15:41:55.598Z,23.40
2019-01-06T15:44:34.604Z,23.30
2019-01-06T15:47:10.581Z,23.80
2019-01-06T15:49:52.415Z,27.97
2019-01-06T15:52:37.317Z,24.77
2019-01-06T15:55:22.445Z,22.07
2019-01-06T15:57:52.495Z,21.90
2019-01-06T16:00:38.495Z,23.47
2019-01-06T16:03:08.521Z,22.03
2019-01-06T16:05:41.239Z,24.83
2019-01-06T16:08:20.295Z,22.10
2019-01-06T16:10:50.341Z,23.57
2019-01-06T16:13:36.280Z,21.10
2019-01-06T16:16:25.190Z,22.13
2019-01-06T16:19:10.444Z,22.87
2019-01-06T16:21:40.724Z,25.07
2019-01-06T16:24:27.731Z,22.30
2019-01-06T16:27:00.150Z,23.83
2019-01-06T16:29:45.831Z,23.90
2019-01-06T16:32:31.931Z,22.70
2019-01-06T16:35:17.082Z,24.03
2019-01-06T16:37:55.830Z,22.17
2019-01-06T16:40:31.533Z,22.47
2019-01-06T16:43:04.199Z,20.87
2019-01-06T16:45:51.051Z,18.93
2019-01-06T16:48:37.016Z,22.93
2019-01-06T16:51:12.736Z,21.90
2019-01-06T16:53:45.176Z,20.23
2019-01-06T16:56:31.389Z,20.57
2019-01-06T16:59:01.508Z,19.20
2019-01-06T17:01:31.528Z,20.10
2019-01-06T17:04:10.669Z,22.10
2019-01-06T17:06:49.155Z,21.47
2019-01-06T17:09:35.481Z,24.10
2019-01-06T17:12:21.253Z,26.63
2019-01-06T17:14:51.242Z,26.20
2019-01-06T17:17:23.659Z,27.20
2019-01-06T17:19:53.691Z,22.57
2019-01-06T17:22:39.865Z,23.33
2019-01-06T17:25:10.029Z,24.00
2019-01-06T17:27:55.963Z,24.60
2019-01-06T17:30:31.955Z,24.60
2019-01-06T17:33:01.968Z,27.07
2019-01-06T17:35:43.895Z,31.00
2019-01-06T17:38:32.011Z,27.77
2019-01-06T17:41:07.647Z,28.33
2019-01-06T17:43:43.381Z,28.73
2019-01-06T17:46:16.151Z,29.00
2019-01-06T17:49:02.304Z,24.33
2019-01-06T17:51:49.514Z,29.47
2019-01-06T17:54:21.298Z,30.40
2019-01-06T17:57:04.089Z,27.43
2019-01-06T17:59:50.320Z,25.47
2019-01-06T18:02:30.211Z,27.97
2019-01-06T18:05:00.231Z,28.53
2019-01-06T18:07:42.360Z,24.60
2019-01-06T18:10:28.337Z,28.30
2019-01-06T18:12:58.367Z,26.83
2019-01-06T18:15:40.017Z,30.07
2019-01-06T18:18:10.181Z,26.07
2019-01-06T18:20:57.301Z,25.27
2019-01-06T18:23:27.318Z,26.20
2019-01-06T18:26:00.242Z,27.10
2019-01-06T18:28:30.265Z,28.93
2019-01-06T18:31:16.528Z,28.57
2019-01-06T18:34:04.372Z,28.97
2019-01-06T18:36:34.390Z,26.93
2019-01-06T18:39:10.207Z,26.60
2019-01-06T18:41:57.900Z,28.87
2019-01-06T18:44:30.626Z,25.17
2019-01-06T18:47:06.586Z,28.00
2019-01-06T18:49:42.304Z,29.63
2019-01-06T18:52:18.041Z,28.40
2019-01-06T18:55:03.967Z,28.73
2019-01-06T18:57:48.803Z,32.23
2019-01-06T19:00:27.315Z,28.77
2019-01-06T19:03:08.944Z,29.70
2019-01-06T19:05:41.512Z,31.03
2019-01-06T19:08:14.225Z,31.57
2019-01-06T19:10:49.654Z,37.20
2019-01-06T19:13:37.559Z,28.83
2019-01-06T19:16:07.655Z,31.20
2019-01-06T19:18:37.670Z,27.47
2019-01-06T19:21:07.775Z,32.40
2019-01-06T19:23:49.596Z,32.27
2019-01-06T19:26:28.331Z,33.53
2019-01-06T19:28:58.369Z,30.10
2019-01-06T19:31:34.461Z,29.40
2019-01-06T19:34:10.152Z,30.83
2019-01-06T19:36:48.661Z,31.77
2019-01-06T19:39:33.183Z,30.37
2019-01-06T19:42:19.150Z,30.77
2019-01-06T19:44:57.832Z,32.27
2019-01-06T19:47:45.452Z,31.97
2019-01-06T19:50:30.655Z,33.07
2019-01-06T19:53:00.653Z,31.97
2019-01-06T19:55:46.781Z,32.90
2019-01-06T19:58:22.919Z,30.77
2019-01-06T20:01:10.762Z,36.93
2019-01-06T20:03:55.659Z,31.93
2019-01-06T20:06:42.577Z,32.90
2019-01-06T20:09:24.404Z,32.20
2019-01-06T20:12:11.527Z,37.70
2019-01-06T20:14:57.261Z,30.53
2019-01-06T20:17:30.643Z,33.60
2019-01-06T20:20:06.611Z,31.70
2019-01-06T20:22:51.787Z,34.10
2019-01-06T20:25:34.371Z,37.83
2019-01-06T20:28:13.165Z,32.90
2019-01-06T20:30:52.024Z,32.83
2019-01-06T20:33:30.609Z,36.90
2019-01-06T20:36:17.484Z,31.60
2019-01-06T20:38:59.330Z,38.13
2019-01-06T20:41:29.366Z,35.67
2019-01-06T20:44:15.529Z,37.60
2019-01-06T20:46:45.551Z,34.73
2019-01-06T20:49:21.667Z,34.93
2019-01-06T20:51:57.636Z,36.37
2019-01-06T20:54:45.850Z,33.37
2019-01-06T20:57:24.688Z,36.47
2019-01-06T21:00:00.639Z,34.43
2019-01-06T21:02:46.611Z,33.13
2019-01-06T21:05:28.679Z,36.80
2019-01-06T21:08:16.738Z,35.53
2019-01-06T21:10:51.624Z,36.73
2019-01-06T21:13:21.648Z,37.53
2019-01-06T21:15:57.699Z,38.60
2019-01-06T21:18:45.945Z,35.83
2019-01-06T21:21:15.969Z,38.47
2019-01-06T21:23:48.832Z,36.90
2019-01-06T21:26:34.779Z,33.37
2019-01-06T21:29:04.805Z,33.13
2019-01-06T21:31:49.680Z,35.03
2019-01-06T21:34:25.456Z,34.33
2019-01-06T21:37:03.255Z,37.10
2019-01-06T21:39:38.978Z,41.23
2019-01-06T21:42:20.832Z,36.77
2019-01-06T21:44:59.572Z,36.93
2019-01-06T21:47:45.703Z,38.53
2019-01-06T21:50:31.721Z,38.60
2019-01-06T21:53:07.496Z,33.27
2019-01-06T21:55:37.522Z,38.40
2019-01-06T21:58:12.331Z,38.40
2019-01-06T22:00:51.023Z,40.90
2019-01-06T22:03:26.772Z,35.47
2019-01-06T22:06:12.695Z,42.03
2019-01-06T22:08:48.556Z,33.47
2019-01-06T22:11:24.576Z,38.10
2019-01-06T22:14:03.374Z,35.67
2019-01-06T22:16:42.398Z,38.23
2019-01-06T22:19:28.040Z,34.40
2019-01-06T22:22:16.208Z,37.80
2019-01-06T22:24:49.348Z,34.50
2019-01-06T22:27:34.475Z,39.07
2019-01-06T22:30:20.447Z,40.60
2019-01-06T22:33:06.677Z,35.83
2019-01-06T22:35:52.900Z,35.57
2019-01-06T22:38:22.925Z,39.47
2019-01-06T22:40:55.895Z,36.37
2019-01-06T22:43:34.347Z,35.93
2019-01-06T22:46:04.361Z,33.53
2019-01-06T22:48:40.104Z,36.70
2019-01-06T22:51:12.564Z,37.77
2019-01-06T22:53:58.301Z,36.87
2019-01-06T22:56:28.317Z,35.73
2019-01-06T22:59:16.267Z,41.83
2019-01-06T23:02:02.497Z,36.13
2019-01-06T23:04:47.063Z,35.40
2019-01-06T23:07:33.193Z,39.30
2019-01-06T23:10:12.270Z,36.87
2019-01-06T23:12:42.281Z,36.73
2019-01-06T23:15:12.312Z,38.80
2019-01-06T23:17:57.423Z,38.60
2019-01-06T23:20:27.448Z,39.30
2019-01-06T23:23:15.570Z,34.67
2019-01-06T23:25:48.172Z,34.90
2019-01-06T23:28:23.722Z,32.43
2019-01-06T23:30:53.756Z,37.00
2019-01-06T23:33:23.774Z,37.37
2019-01-06T23:36:11.654Z,36.90
2019-01-06T23:38:47.727Z,34.40
2019-01-06T23:41:29.282Z,37.17
2019-01-06T23:44:02.354Z,32.50
2019-01-06T23:46:48.298Z,34.33
2019-01-06T23:49:18.303Z,33.20
2019-01-06T23:51:53.905Z,35.13
2019-01-06T23:54:29.822Z,37.60
2019-01-06T23:57:05.953Z,35.07
2019-01-06T23:59:38.699Z,33.70
